createdAt,value
2022-08-23T00:01:34.285Z,17.70
2022-08-23T00:04:05.512Z,17.70
2022-08-23T00:06:32.717Z,17.60
2022-08-23T00:09:00.128Z,17.60
2022-08-23T00:11:34.534Z,17.60
2022-08-23T00:14:06.294Z,17.60
2022-08-23T00:16:33.257Z,17.60
2022-08-23T00:19:00.269Z,17.60
2022-08-23T00:21:27.173Z,17.60
2022-08-23T00:23:53.867Z,17.70
2022-08-23T00:26:21.092Z,17.60
2022-08-23T00:28:49.600Z,17.50
2022-08-23T00:31:18.965Z,17.50
2022-08-23T00:33:46.161Z,17.50
2022-08-23T00:36:12.917Z,17.50
2022-08-23T00:38:39.980Z,17.50
2022-08-23T00:41:06.945Z,17.50
2022-08-23T00:44:09.506Z,17.50
2022-08-23T00:47:04.240Z,17.50
2022-08-23T00:49:32.009Z,17.50
2022-08-23T00:51:58.658Z,17.50
2022-08-23T00:54:27.673Z,17.50
2022-08-23T00:56:57.686Z,17.50
2022-08-23T00:59:24.772Z,17.50
2022-08-23T01:01:52.423Z,17.50
2022-08-23T01:04:19.844Z,17.50
2022-08-23T01:06:55.624Z,17.50
2022-08-23T01:09:22.405Z,17.50
2022-08-23T01:12:08.049Z,17.40
2022-08-23T01:14:51.566Z,17.50
2022-08-23T01:17:26.936Z,17.50
2022-08-23T01:20:01.764Z,17.50
2022-08-23T01:22:34.606Z,17.50
2022-08-23T01:25:08.900Z,17.50
2022-08-23T01:27:37.901Z,17.50
2022-08-23T01:30:10.719Z,17.50
2022-08-23T01:32:46.627Z,17.50
2022-08-23T01:35:16.772Z,17.50
2022-08-23T01:37:44.525Z,17.40
2022-08-23T01:40:11.805Z,17.40
2022-08-23T01:42:41.661Z,17.40
2022-08-23T01:45:15.597Z,17.50
2022-08-23T01:47:42.545Z,17.50
2022-08-23T01:50:12.733Z,17.50
2022-08-23T01:52:46.803Z,17.50
2022-08-23T01:55:14.441Z,17.50
2022-08-23T01:57:43.002Z,17.50
2022-08-23T02:00:12.650Z,17.40
2022-08-23T02:02:41.431Z,17.50
2022-08-23T02:05:09.220Z,17.50
2022-08-23T02:07:36.191Z,17.50
2022-08-23T02:10:03.061Z,17.60
2022-08-23T02:12:29.948Z,17.50
2022-08-23T02:14:56.688Z,17.60
2022-08-23T02:17:24.029Z,17.50
2022-08-23T02:19:50.737Z,17.50
2022-08-23T02:22:17.880Z,17.60
2022-08-23T02:24:46.198Z,17.60
2022-08-23T02:27:15.358Z,17.60
2022-08-23T02:29:45.054Z,17.50
2022-08-23T02:32:16.003Z,17.60
2022-08-23T02:34:44.021Z,17.60
2022-08-23T02:37:17.690Z,17.50
2022-08-23T02:39:44.538Z,17.50
2022-08-23T02:42:11.667Z,17.60
2022-08-23T02:44:38.811Z,17.50
2022-08-23T02:47:11.804Z,17.50
2022-08-23T02:49:38.800Z,17.60
2022-08-23T02:52:07.175Z,17.60
2022-08-23T02:54:35.651Z,17.50
2022-08-23T02:57:02.604Z,17.50
2022-08-23T02:59:29.293Z,17.50
2022-08-23T03:01:56.122Z,17.50
2022-08-23T03:04:23.165Z,17.50
2022-08-23T03:06:49.857Z,17.50
2022-08-23T03:09:16.556Z,17.50
2022-08-23T03:11:46.315Z,17.50
2022-08-23T03:14:13.253Z,17.50
2022-08-23T03:16:40.409Z,17.50
2022-08-23T03:19:07.167Z,17.50
2022-08-23T03:21:34.085Z,17.50
2022-08-23T03:24:00.780Z,17.50
2022-08-23T03:26:27.542Z,17.50
2022-08-23T03:28:54.897Z,17.50
2022-08-23T03:31:23.364Z,17.50
2022-08-23T03:33:50.053Z,17.50
2022-08-23T03:36:17.044Z,17.50
2022-08-23T03:38:45.293Z,17.50
2022-08-23T03:41:12.685Z,17.50
2022-08-23T03:43:39.842Z,17.60
2022-08-23T03:46:08.073Z,17.60
2022-08-23T03:48:35.145Z,17.60
2022-08-23T03:51:02.569Z,17.60
2022-08-23T03:53:29.299Z,17.60
2022-08-23T03:55:56.543Z,17.60
2022-08-23T03:58:24.279Z,17.60
2022-08-23T04:00:50.941Z,17.60
2022-08-23T04:03:17.894Z,17.60
2022-08-23T04:05:44.870Z,17.60
2022-08-23T04:08:11.832Z,17.60
2022-08-23T04:10:39.280Z,17.60
2022-08-23T04:13:08.982Z,17.60
2022-08-23T04:15:36.549Z,17.60
2022-08-23T04:18:04.005Z,17.60
2022-08-23T04:20:30.723Z,17.60
2022-08-23T04:22:57.684Z,17.60
2022-08-23T04:25:33.208Z,17.60
2022-08-23T04:28:00.958Z,17.60
2022-08-23T04:30:27.981Z,17.60
2022-08-23T04:32:54.699Z,17.60
2022-08-23T04:35:22.422Z,17.60
2022-08-23T04:37:49.447Z,17.60
2022-08-23T04:40:35.171Z,17.70
2022-08-23T04:43:02.841Z,17.70
2022-08-23T04:45:29.633Z,17.70
2022-08-23T04:47:56.542Z,17.70
2022-08-23T04:50:23.376Z,17.70
2022-08-23T04:52:50.048Z,17.70
2022-08-23T04:55:17.097Z,17.80
2022-08-23T04:57:44.722Z,17.80
2022-08-23T05:00:13.982Z,17.80
2022-08-23T05:02:40.756Z,17.80
2022-08-23T05:05:09.353Z,17.80
2022-08-23T05:07:41.877Z,17.80
2022-08-23T05:10:15.469Z,17.80
2022-08-23T05:12:42.680Z,17.90
2022-08-23T05:15:10.029Z,17.90
2022-08-23T05:17:37.845Z,17.90
2022-08-23T05:20:07.085Z,18.00
2022-08-23T05:22:35.006Z,18.00
2022-08-23T05:25:02.026Z,18.00
2022-08-23T05:27:28.662Z,18.00
2022-08-23T05:29:55.463Z,18.00
2022-08-23T05:32:23.253Z,18.00
2022-08-23T05:34:49.925Z,18.10
2022-08-23T05:37:17.856Z,18.10
2022-08-23T05:39:44.673Z,18.10
2022-08-23T05:42:14.809Z,18.20
2022-08-23T05:44:41.741Z,18.20
2022-08-23T05:47:11.851Z,18.20
2022-08-23T05:49:40.349Z,18.20
2022-08-23T05:52:09.770Z,18.30
2022-08-23T05:54:36.440Z,18.30
2022-08-23T05:57:03.360Z,18.30
2022-08-23T05:59:30.149Z,18.40
2022-08-23T06:01:57.325Z,18.40
2022-08-23T06:04:24.174Z,18.40
2022-08-23T06:06:50.860Z,18.40
2022-08-23T06:09:18.618Z,18.50
2022-08-23T06:11:47.753Z,18.60
2022-08-23T06:14:15.910Z,18.70
2022-08-23T06:16:46.445Z,18.70
2022-08-23T06:19:14.448Z,18.80
2022-08-23T06:21:42.057Z,18.80
2022-08-23T06:24:10.062Z,18.80
2022-08-23T06:26:39.714Z,18.80
2022-08-23T06:29:11.544Z,18.90
2022-08-23T06:31:49.561Z,19.00
2022-08-23T06:34:33.351Z,19.10
2022-08-23T06:37:07.281Z,19.10
2022-08-23T06:39:37.344Z,19.10
2022-08-23T06:42:50.230Z,19.10
2022-08-23T06:45:04.086Z,19.20
2022-08-23T06:47:31.586Z,19.20
2022-08-23T06:49:58.945Z,19.20
2022-08-23T06:52:27.540Z,19.30
2022-08-23T06:54:54.460Z,19.20
2022-08-23T06:57:21.328Z,19.30
2022-08-23T06:59:49.801Z,19.30
2022-08-23T07:02:16.593Z,19.50
2022-08-23T07:04:43.427Z,19.40
2022-08-23T07:07:11.794Z,19.50
2022-08-23T07:09:40.530Z,19.50
2022-08-23T07:12:07.835Z,19.50
2022-08-23T07:14:34.828Z,19.40
2022-08-23T07:17:03.607Z,19.40
2022-08-23T07:19:33.139Z,19.40
2022-08-23T07:22:00.792Z,19.50
2022-08-23T07:24:32.299Z,19.50
2022-08-23T07:27:01.175Z,19.50
2022-08-23T07:29:29.841Z,19.60
2022-08-23T07:31:57.905Z,19.70
2022-08-23T07:34:26.201Z,19.80
2022-08-23T07:36:54.089Z,19.80
2022-08-23T07:39:22.528Z,19.90
2022-08-23T07:41:49.793Z,19.90
2022-08-23T07:44:18.254Z,20.00
2022-08-23T07:46:46.701Z,20.00
2022-08-23T07:49:14.147Z,20.10
2022-08-23T07:51:42.733Z,20.10
2022-08-23T07:54:10.943Z,20.30
2022-08-23T07:56:37.765Z,20.30
2022-08-23T07:59:06.141Z,20.40
2022-08-23T08:01:33.124Z,20.40
2022-08-23T08:04:02.149Z,20.40
2022-08-23T08:06:34.078Z,20.40
2022-08-23T08:09:00.922Z,20.50
2022-08-23T08:11:34.483Z,20.50
2022-08-23T08:14:07.318Z,20.40
2022-08-23T08:16:37.517Z,20.40
2022-08-23T08:19:07.685Z,20.50
2022-08-23T08:21:36.114Z,20.50
2022-08-23T08:24:12.750Z,20.60
2022-08-23T08:26:41.169Z,20.70
2022-08-23T08:29:11.862Z,20.70
2022-08-23T08:31:40.808Z,20.70
2022-08-23T08:34:08.175Z,20.80
2022-08-23T08:36:42.771Z,20.90
2022-08-23T08:39:16.948Z,20.80
2022-08-23T08:41:48.701Z,20.90
2022-08-23T08:45:04.953Z,20.90
2022-08-23T08:48:13.690Z,21.00
2022-08-23T08:50:47.737Z,20.90
2022-08-23T08:53:34.285Z,20.80
2022-08-23T08:56:07.291Z,21.00
2022-08-23T08:58:48.481Z,21.00
2022-08-23T09:01:17.616Z,21.20
2022-08-23T09:03:46.335Z,21.30
2022-08-23T09:06:26.494Z,21.30
2022-08-23T09:09:23.690Z,21.30
2022-08-23T09:11:50.408Z,21.50
2022-08-23T09:14:39.231Z,21.60
2022-08-23T09:17:18.138Z,21.70
2022-08-23T09:19:46.638Z,21.90
2022-08-23T09:22:18.111Z,22.00
2022-08-23T09:24:44.808Z,22.10
2022-08-23T09:27:11.859Z,22.20
2022-08-23T09:29:50.801Z,22.30
2022-08-23T09:32:34.356Z,22.50
2022-08-23T09:35:09.761Z,22.60
2022-08-23T09:38:31.844Z,22.50
2022-08-23T09:40:58.563Z,22.40
2022-08-23T09:43:28.238Z,22.60
2022-08-23T09:45:57.088Z,22.70
2022-08-23T09:48:42.516Z,23.00
2022-08-23T09:51:26.580Z,23.10
2022-08-23T09:54:07.060Z,22.90
2022-08-23T09:56:40.700Z,22.90
2022-08-23T09:59:47.518Z,22.90
2022-08-23T10:02:24.793Z,23.00
2022-08-23T10:05:03.514Z,23.10
2022-08-23T10:07:42.688Z,23.10
2022-08-23T10:10:29.172Z,23.10
2022-08-23T10:12:57.562Z,23.10
2022-08-23T10:15:36.543Z,23.10
2022-08-23T10:18:34.445Z,22.90
2022-08-23T10:21:17.554Z,22.90
2022-08-23T10:23:49.927Z,22.80
2022-08-23T10:26:30.103Z,22.90
2022-08-23T10:29:37.215Z,23.00
2022-08-23T10:32:09.695Z,23.10
2022-08-23T10:34:56.443Z,23.10
2022-08-23T10:37:32.134Z,23.10
2022-08-23T10:40:17.292Z,23.20
2022-08-23T10:43:01.143Z,23.30
2022-08-23T10:45:35.216Z,23.30
2022-08-23T10:48:21.988Z,23.30
2022-08-23T10:50:56.139Z,23.20
2022-08-23T10:53:59.903Z,23.20
2022-08-23T10:56:28.217Z,23.10
2022-08-23T10:58:59.611Z,23.10
2022-08-23T11:01:34.202Z,23.10
2022-08-23T11:04:09.101Z,23.20
2022-08-23T11:06:35.683Z,23.50
2022-08-23T11:09:05.077Z,23.50
2022-08-23T11:12:11.655Z,23.90
2022-08-23T11:14:42.589Z,23.70
2022-08-23T11:17:23.563Z,23.60
2022-08-23T11:19:59.602Z,23.70
2022-08-23T11:22:54.001Z,24.00
2022-08-23T11:25:20.649Z,24.00
2022-08-23T11:27:47.345Z,23.90
2022-08-23T11:30:32.521Z,23.80
2022-08-23T11:33:20.492Z,23.80
2022-08-23T11:36:21.839Z,23.80
2022-08-23T11:38:48.612Z,23.60
2022-08-23T11:41:28.679Z,23.70
2022-08-23T11:43:55.265Z,23.70
2022-08-23T11:46:25.795Z,24.10
2022-08-23T11:49:14.884Z,24.30
2022-08-23T11:52:03.025Z,24.50
2022-08-23T11:55:06.018Z,24.50
2022-08-23T11:57:59.435Z,24.40
2022-08-23T12:00:29.845Z,24.30
2022-08-23T12:03:24.784Z,24.00
2022-08-23T12:05:51.614Z,24.00
2022-08-23T12:08:22.849Z,24.00
2022-08-23T12:10:50.987Z,24.10
2022-08-23T12:13:21.049Z,24.20
2022-08-23T12:16:19.867Z,24.60
2022-08-23T12:18:49.625Z,24.90
2022-08-23T12:21:27.312Z,25.00
2022-08-23T12:24:01.113Z,24.80
2022-08-23T12:27:13.188Z,24.80
2022-08-23T12:29:59.702Z,24.70
2022-08-23T12:33:03.261Z,24.70
2022-08-23T12:35:59.484Z,24.40
2022-08-23T12:38:39.748Z,24.50
2022-08-23T12:41:19.112Z,24.40
2022-08-23T12:44:08.302Z,24.40
2022-08-23T12:46:39.373Z,24.40
2022-08-23T12:49:08.981Z,24.40
2022-08-23T12:51:51.717Z,24.60
2022-08-23T12:54:32.811Z,24.80
2022-08-23T12:57:00.465Z,24.90
2022-08-23T12:59:49.531Z,25.10
2022-08-23T13:02:29.731Z,25.10
2022-08-23T13:05:03.403Z,25.10
2022-08-23T13:07:30.752Z,25.20
2022-08-23T13:09:57.818Z,25.20
2022-08-23T13:12:26.946Z,25.20
2022-08-23T13:14:55.676Z,25.20
2022-08-23T13:17:25.276Z,25.10
2022-08-23T13:20:02.568Z,25.00
2022-08-23T13:22:54.235Z,24.80
2022-08-23T13:25:32.334Z,24.50
2022-08-23T13:28:20.585Z,24.60
2022-08-23T13:30:59.990Z,24.60
2022-08-23T13:33:26.719Z,24.50
2022-08-23T13:36:14.243Z,24.30
2022-08-23T13:38:42.120Z,24.30
2022-08-23T13:41:25.332Z,24.30
2022-08-23T13:43:52.168Z,24.30
2022-08-23T13:46:26.734Z,24.20
2022-08-23T13:49:09.966Z,24.20
2022-08-23T13:51:40.049Z,24.20
2022-08-23T13:54:14.609Z,24.10
2022-08-23T13:56:51.704Z,24.00
2022-08-23T13:59:31.089Z,24.00
2022-08-23T14:02:01.627Z,24.20
2022-08-23T14:04:28.490Z,24.40
2022-08-23T14:06:55.120Z,24.70
2022-08-23T14:09:21.827Z,25.20
2022-08-23T14:11:53.778Z,25.70
2022-08-23T14:14:20.676Z,25.80
2022-08-23T14:16:47.365Z,26.00
2022-08-23T14:19:16.503Z,25.80
2022-08-23T14:21:46.651Z,25.90
2022-08-23T14:24:13.367Z,26.20
2022-08-23T14:26:51.822Z,26.00
2022-08-23T14:29:21.491Z,26.00
2022-08-23T14:31:50.842Z,26.20
2022-08-23T14:34:17.783Z,26.20
2022-08-23T14:38:00.269Z,26.20
2022-08-23T14:39:31.120Z,25.90
2022-08-23T14:41:58.278Z,25.10
2022-08-23T14:44:27.905Z,25.10
2022-08-23T14:46:57.036Z,24.90
2022-08-23T14:49:23.713Z,24.70
2022-08-23T14:51:50.820Z,24.60
2022-08-23T14:54:24.081Z,24.60
2022-08-23T14:56:51.522Z,24.60
2022-08-23T14:59:18.356Z,24.50
2022-08-23T15:01:47.300Z,24.50
2022-08-23T15:04:19.895Z,24.40
2022-08-23T15:07:13.933Z,24.40
2022-08-23T15:09:34.513Z,24.40
2022-08-23T15:14:48.056Z,24.90
2022-08-23T15:17:15.209Z,25.40
2022-08-23T15:19:42.004Z,25.60
2022-08-23T15:22:18.783Z,25.90
2022-08-23T15:24:49.124Z,26.10
2022-08-23T15:27:15.945Z,26.20
2022-08-23T15:29:42.710Z,26.20
2022-08-23T15:32:10.153Z,26.10
2022-08-23T15:34:40.168Z,26.00
2022-08-23T15:37:12.724Z,25.80
2022-08-23T15:39:40.491Z,25.50
2022-08-23T15:42:07.297Z,25.20
2022-08-23T15:44:33.989Z,25.10
2022-08-23T15:47:01.763Z,24.90
2022-08-23T15:49:31.737Z,24.80
2022-08-23T15:52:00.780Z,24.70
2022-08-23T15:54:27.460Z,24.50
2022-08-23T15:56:54.504Z,24.50
2022-08-23T15:59:24.141Z,24.40
2022-08-23T16:01:50.880Z,24.30
2022-08-23T16:04:18.508Z,24.20
2022-08-23T16:06:45.474Z,24.10
2022-08-23T16:09:21.237Z,24.00
2022-08-23T16:11:49.167Z,23.90
2022-08-23T16:14:15.953Z,23.80
2022-08-23T16:16:46.385Z,23.90
2022-08-23T16:19:13.292Z,23.90
2022-08-23T16:21:40.884Z,23.80
2022-08-23T16:24:08.065Z,23.80
2022-08-23T16:26:37.508Z,23.80
2022-08-23T16:29:13.286Z,23.80
2022-08-23T16:31:41.680Z,23.80
2022-08-23T16:34:16.369Z,23.80
2022-08-23T16:36:45.968Z,23.70
2022-08-23T16:39:15.183Z,23.50
2022-08-23T16:41:42.207Z,23.50
2022-08-23T16:44:08.981Z,23.40
2022-08-23T16:46:36.214Z,23.30
2022-08-23T16:49:03.137Z,23.20
2022-08-23T16:51:29.852Z,23.10
2022-08-23T16:54:02.997Z,23.00
2022-08-23T16:56:31.759Z,23.00
2022-08-23T16:58:59.183Z,22.80
2022-08-23T17:01:26.590Z,22.80
2022-08-23T17:03:53.350Z,22.80
2022-08-23T17:06:20.030Z,22.80
2022-08-23T17:08:46.934Z,22.80
2022-08-23T17:11:17.345Z,22.80
2022-08-23T17:13:44.589Z,22.80
2022-08-23T17:16:11.677Z,22.70
2022-08-23T17:18:38.687Z,22.70
2022-08-23T17:21:05.585Z,22.70
2022-08-23T17:23:32.444Z,22.70
2022-08-23T17:25:59.708Z,22.70
2022-08-23T17:28:26.510Z,22.70
2022-08-23T17:30:54.578Z,22.70
2022-08-23T17:33:22.424Z,22.70
2022-08-23T17:35:49.129Z,22.60
2022-08-23T17:38:15.881Z,22.60
2022-08-23T17:40:42.864Z,22.50
2022-08-23T17:43:09.766Z,22.50
2022-08-23T17:45:43.855Z,22.40
2022-08-23T17:48:12.006Z,22.40
2022-08-23T17:50:39.651Z,22.40
2022-08-23T17:53:06.758Z,22.40
2022-08-23T17:55:35.434Z,22.30
2022-08-23T17:58:03.815Z,22.20
2022-08-23T18:00:33.489Z,22.30
2022-08-23T18:03:00.368Z,22.30
2022-08-23T18:05:29.731Z,22.20
2022-08-23T18:07:56.432Z,22.20
2022-08-23T18:10:25.321Z,22.10
2022-08-23T18:12:52.265Z,22.10
2022-08-23T18:15:19.055Z,22.10
2022-08-23T18:17:46.396Z,22.00
2022-08-23T18:20:13.892Z,21.90
2022-08-23T18:22:40.579Z,21.90
2022-08-23T18:25:09.403Z,21.80
2022-08-23T18:27:55.103Z,21.70
2022-08-23T18:30:21.976Z,21.60
2022-08-23T18:32:48.738Z,21.50
2022-08-23T18:35:15.636Z,21.60
2022-08-23T18:37:42.309Z,21.60
2022-08-23T18:40:10.486Z,21.60
2022-08-23T18:42:38.366Z,21.60
2022-08-23T18:45:06.177Z,21.40
2022-08-23T18:47:32.983Z,21.30
2022-08-23T18:49:59.684Z,21.20
2022-08-23T18:52:29.255Z,21.20
2022-08-23T18:54:58.039Z,21.20
2022-08-23T18:57:24.925Z,21.10
2022-08-23T18:59:51.664Z,21.10
2022-08-23T19:02:19.481Z,21.00
2022-08-23T19:04:46.296Z,20.90
2022-08-23T19:07:13.044Z,20.80
2022-08-23T19:09:39.752Z,20.70
2022-08-23T19:12:06.830Z,20.70
2022-08-23T19:14:35.637Z,20.60
2022-08-23T19:17:05.119Z,20.50
2022-08-23T19:19:31.849Z,20.50
2022-08-23T19:21:58.533Z,20.40
2022-08-23T19:24:25.554Z,20.30
2022-08-23T19:26:52.543Z,20.30
2022-08-23T19:29:20.533Z,20.30
2022-08-23T19:31:50.313Z,20.20
2022-08-23T19:34:22.111Z,20.20
2022-08-23T19:36:58.063Z,20.10
2022-08-23T19:39:27.854Z,20.10
2022-08-23T19:41:54.570Z,20.00
2022-08-23T19:44:21.305Z,20.00
2022-08-23T19:46:48.310Z,20.00
2022-08-23T19:49:15.294Z,19.90
2022-08-23T19:51:42.843Z,19.90
2022-08-23T19:54:12.235Z,19.80
2022-08-23T19:56:48.307Z,19.80
2022-08-23T19:59:19.505Z,19.80
2022-08-23T20:01:47.838Z,19.70
2022-08-23T20:04:14.582Z,19.70
2022-08-23T20:06:41.265Z,19.60
2022-08-23T20:09:08.316Z,19.60
2022-08-23T20:11:35.838Z,19.50
2022-08-23T20:14:05.289Z,19.50
2022-08-23T20:16:32.721Z,19.50
2022-08-23T20:19:00.355Z,19.40
2022-08-23T20:21:27.102Z,19.40
2022-08-23T20:24:00.884Z,19.40
2022-08-23T20:26:40.635Z,19.30
2022-08-23T20:29:33.861Z,19.30
2022-08-23T20:32:00.501Z,19.30
2022-08-23T20:34:28.331Z,19.30
2022-08-23T20:36:56.112Z,19.30
2022-08-23T20:39:24.254Z,19.20
2022-08-23T20:41:52.562Z,19.20
2022-08-23T20:44:21.079Z,19.10
2022-08-23T20:46:51.831Z,19.10
2022-08-23T20:49:21.311Z,19.10
2022-08-23T20:51:48.065Z,19.10
2022-08-23T20:54:16.861Z,19.00
2022-08-23T20:56:43.776Z,19.10
2022-08-23T20:59:10.466Z,19.00
2022-08-23T21:01:37.397Z,19.00
2022-08-23T21:04:05.406Z,18.90
2022-08-23T21:06:41.869Z,19.00
2022-08-23T21:09:16.915Z,18.90
2022-08-23T21:11:44.053Z,18.90
2022-08-23T21:14:11.267Z,18.80
2022-08-23T21:16:38.388Z,18.90
2022-08-23T21:19:05.773Z,18.80
2022-08-23T21:21:32.855Z,18.80
2022-08-23T21:23:59.534Z,18.80
2022-08-23T21:26:26.315Z,18.70
2022-08-23T21:28:53.287Z,18.70
2022-08-23T21:31:25.588Z,18.70
2022-08-23T21:33:54.057Z,18.60
2022-08-23T21:36:22.510Z,18.60
2022-08-23T21:38:50.160Z,18.50
2022-08-23T21:41:37.175Z,18.50
2022-08-23T21:44:07.668Z,18.50
2022-08-23T21:46:35.568Z,18.40
2022-08-23T21:49:02.299Z,18.40
2022-08-23T21:51:29.744Z,18.40
2022-08-23T21:53:56.890Z,18.40
2022-08-23T21:56:23.620Z,18.40
2022-08-23T21:58:53.540Z,18.30
2022-08-23T22:01:20.232Z,18.20
2022-08-23T22:03:46.918Z,18.20
2022-08-23T22:06:15.923Z,18.10
2022-08-23T22:08:43.745Z,18.20
2022-08-23T22:11:11.928Z,18.10
2022-08-23T22:13:39.352Z,18.00
2022-08-23T22:16:06.905Z,18.10
2022-08-23T22:18:34.756Z,18.00
2022-08-23T22:21:02.677Z,18.00
2022-08-23T22:23:31.456Z,17.90
2022-08-23T22:26:00.324Z,17.90
2022-08-23T22:28:31.293Z,17.90
2022-08-23T22:31:06.198Z,17.90
2022-08-23T22:33:33.384Z,17.90
2022-08-23T22:36:06.172Z,17.90
2022-08-23T22:38:33.085Z,17.90
2022-08-23T22:40:59.746Z,17.80
2022-08-23T22:43:26.911Z,17.80
2022-08-23T22:46:00.852Z,17.80
2022-08-23T22:48:29.821Z,17.80
2022-08-23T22:51:11.574Z,17.70
2022-08-23T22:53:42.174Z,17.70
2022-08-23T22:56:12.360Z,17.70
2022-08-23T22:58:42.420Z,17.70
2022-08-23T23:01:13.422Z,17.60
2022-08-23T23:03:41.407Z,17.60
2022-08-23T23:06:08.784Z,17.60
2022-08-23T23:08:35.439Z,17.60
2022-08-23T23:11:05.658Z,17.60
2022-08-23T23:13:33.245Z,17.60
2022-08-23T23:16:04.776Z,17.60
2022-08-23T23:18:31.439Z,17.60
2022-08-23T23:21:00.244Z,17.60
2022-08-23T23:23:29.126Z,17.60
2022-08-23T23:25:55.990Z,17.60
2022-08-23T23:28:22.773Z,17.60
2022-08-23T23:30:52.094Z,17.60
2022-08-23T23:33:20.922Z,17.60
2022-08-23T23:35:48.833Z,17.60
2022-08-23T23:38:16.483Z,17.60
2022-08-23T23:40:44.238Z,17.60
2022-08-23T23:43:13.221Z,17.60
2022-08-23T23:45:41.097Z,17.60
2022-08-23T23:48:08.751Z,17.60
2022-08-23T23:50:36.568Z,17.60
2022-08-23T23:53:04.340Z,17.50
2022-08-23T23:55:31.035Z,17.60
2022-08-23T23:57:58.675Z,17.50
